Time;durP1;ratioP1;P1;durP2;ratioP2;P2;SDS_P1;SDS_P2;PMS_P1;PMS_P2;Temp;Humidity;BMP_temperature;BMP_pressure;BME280_temperature;BME280_humidity;BME280_pressure;Samples;Min_cycle;Max_cycle;Signal;HPM_P1;HPM_P2
2023/04/04 00:00:06;;;;;;;3.83;2.53;;;;;;;;;;6246057;28;20218;-62
2023/04/04 00:03:07;;;;;;;2.70;1.93;;;;;;;;;;6247699;28;20187;-61
2023/04/04 00:06:08;;;;;;;2.80;2.10;;;;;;;;;;6270324;28;20191;-62
2023/04/04 00:09:10;;;;;;;3.10;1.70;;;;;;;;;;6267563;28;20225;-62
2023/04/04 00:12:11;;;;;;;5.13;2.27;;;;;;;;;;6257391;28;20190;-61
2023/04/04 00:15:12;;;;;;;2.70;2.10;;;;;;;;;;6243329;28;20204;-60
2023/04/04 00:18:13;;;;;;;3.17;2.10;;;;;;;;;;6246485;28;20220;-60
2023/04/04 00:21:14;;;;;;;2.70;1.80;;;;;;;;;;6265923;28;20198;-60
2023/04/04 00:24:15;;;;;;;3.47;2.00;;;;;;;;;;6270289;28;20197;-60
2023/04/04 00:27:16;;;;;;;2.27;2.00;;;;;;;;;;6246731;28;20201;-60
2023/04/04 00:30:17;;;;;;;1.97;1.50;;;;;;;;;;6249381;28;20225;-61
2023/04/04 00:33:18;;;;;;;3.37;1.80;;;;;;;;;;6256127;28;20293;-61
2023/04/04 00:36:19;;;;;;;3.20;1.90;;;;;;;;;;6249481;28;20729;-60
2023/04/04 00:39:22;;;;;;;2.10;1.90;;;;;;;;;;6287507;28;20217;-60
2023/04/04 00:42:23;;;;;;;2.67;1.77;;;;;;;;;;6273811;28;20190;-60
2023/04/04 00:45:24;;;;;;;2.37;2.00;;;;;;;;;;6261023;28;20292;-60
2023/04/04 00:48:26;;;;;;;3.40;2.13;;;;;;;;;;6294596;28;20298;-61
2023/04/04 00:51:27;;;;;;;2.10;1.90;;;;;;;;;;6294553;28;20185;-61
2023/04/04 00:54:29;;;;;;;2.43;1.90;;;;;;;;;;6285874;28;20275;-61
2023/04/04 00:57:32;;;;;;;3.20;1.80;;;;;;;;;;6266872;28;20201;-61
2023/04/04 01:00:34;;;;;;;2.97;2.10;;;;;;;;;;6275677;28;20197;-61
2023/04/04 01:03:36;;;;;;;2.97;2.00;;;;;;;;;;6275218;28;20190;-62
2023/04/04 01:06:37;;;;;;;2.37;1.87;;;;;;;;;;6264397;28;20185;-61
2023/04/04 01:09:39;;;;;;;2.70;1.83;;;;;;;;;;6251058;28;20219;-61
2023/04/04 01:12:41;;;;;;;5.63;2.33;;;;;;;;;;6269258;28;20197;-61
2023/04/04 01:15:42;;;;;;;2.57;2.27;;;;;;;;;;6264777;28;20198;-62
2023/04/04 01:18:45;;;;;;;2.97;2.13;;;;;;;;;;6266416;28;20241;-61
2023/04/04 01:21:46;;;;;;;2.70;2.20;;;;;;;;;;6268380;28;20236;-61
2023/04/04 01:24:48;;;;;;;2.50;2.23;;;;;;;;;;6292156;28;20272;-61
2023/04/04 01:27:49;;;;;;;4.03;2.10;;;;;;;;;;6260097;28;20206;-62
2023/04/04 01:30:50;;;;;;;3.03;2.20;;;;;;;;;;6259992;28;20197;-60
2023/04/04 01:34:15;;;;;;;2.40;2.17;;;;;;;;;;6260058;28;20714;-61
2023/04/04 01:37:27;;;;;;;3.23;2.47;;;;;;;;;;6278552;28;20244;-61
2023/04/04 01:40:36;;;;;;;3.83;2.10;;;;;;;;;;6273766;28;20209;-60
2023/04/04 01:43:37;;;;;;;2.90;1.93;;;;;;;;;;6268795;28;20236;-60
2023/04/04 01:46:38;;;;;;;2.87;2.20;;;;;;;;;;6276791;28;20186;-60
2023/04/04 01:49:39;;;;;;;1.93;1.57;;;;;;;;;;6292126;28;20190;-60
2023/04/04 01:52:40;;;;;;;2.47;2.10;;;;;;;;;;6246730;28;20195;-60
2023/04/04 01:55:41;;;;;;;3.27;1.93;;;;;;;;;;6290268;28;20197;-61
2023/04/04 01:58:42;;;;;;;2.87;1.90;;;;;;;;;;6259918;28;20213;-60
2023/04/04 02:01:43;;;;;;;4.23;1.90;;;;;;;;;;6275998;28;20189;-61
2023/04/04 02:04:44;;;;;;;3.00;1.80;;;;;;;;;;6275294;28;20197;-60
2023/04/04 02:07:52;;;;;;;2.43;1.90;;;;;;;;;;6255495;28;20198;-61
2023/04/04 02:10:53;;;;;;;2.87;1.77;;;;;;;;;;6268803;28;20201;-61
2023/04/04 02:13:54;;;;;;;2.90;2.30;;;;;;;;;;6259073;28;20220;-61
2023/04/04 02:16:55;;;;;;;3.10;2.00;;;;;;;;;;6297353;28;20264;-61
2023/04/04 02:19:56;;;;;;;2.53;2.00;;;;;;;;;;6254427;28;20215;-61
2023/04/04 02:22:57;;;;;;;1.73;1.60;;;;;;;;;;6259247;28;20228;-61
2023/04/04 02:25:58;;;;;;;3.03;1.93;;;;;;;;;;6271806;28;20194;-61
2023/04/04 02:28:59;;;;;;;2.43;1.63;;;;;;;;;;6258256;28;20215;-61
2023/04/04 02:32:01;;;;;;;4.43;1.90;;;;;;;;;;6259097;28;20336;-62
2023/04/04 02:35:03;;;;;;;2.70;2.00;;;;;;;;;;6292316;28;20193;-62
2023/04/04 02:38:04;;;;;;;5.60;2.23;;;;;;;;;;6288717;28;20228;-61
2023/04/04 02:41:05;;;;;;;2.20;2.00;;;;;;;;;;6291184;28;20199;-61
2023/04/04 02:44:07;;;;;;;2.20;1.90;;;;;;;;;;6264254;28;20198;-60
2023/04/04 02:47:08;;;;;;;3.07;1.80;;;;;;;;;;6241934;28;20245;-61
2023/04/04 02:50:10;;;;;;;3.07;1.90;;;;;;;;;;6257940;28;20194;-61
2023/04/04 02:53:11;;;;;;;3.37;2.23;;;;;;;;;;6258607;28;20201;-60
2023/04/04 02:56:13;;;;;;;3.27;2.10;;;;;;;;;;6274564;28;20203;-60
2023/04/04 02:59:14;;;;;;;2.33;2.13;;;;;;;;;;6245700;28;20219;-60
2023/04/04 03:02:15;;;;;;;2.83;1.80;;;;;;;;;;6290557;28;20199;-61
2023/04/04 03:05:16;;;;;;;4.10;2.27;;;;;;;;;;6253994;28;20202;-60
2023/04/04 03:08:17;;;;;;;1.87;1.73;;;;;;;;;;6250159;28;20261;-61
2023/04/04 03:11:21;;;;;;;3.00;2.07;;;;;;;;;;6273135;28;20691;-62
2023/04/04 03:14:25;;;;;;;2.43;1.97;;;;;;;;;;6290952;28;20195;-61
2023/04/04 03:17:26;;;;;;;2.03;1.83;;;;;;;;;;6286409;28;20199;-61
2023/04/04 03:20:27;;;;;;;2.83;2.20;;;;;;;;;;6248461;28;20186;-61
2023/04/04 03:23:28;;;;;;;2.20;2.00;;;;;;;;;;6257598;28;20199;-61
2023/04/04 03:26:29;;;;;;;2.77;1.80;;;;;;;;;;6263273;28;20199;-61
2023/04/04 03:29:31;;;;;;;2.70;1.90;;;;;;;;;;6283578;28;20226;-61
2023/04/04 03:32:32;;;;;;;3.87;2.57;;;;;;;;;;6257299;28;20277;-60
2023/04/04 03:35:37;;;;;;;4.23;2.23;;;;;;;;;;6259346;28;20198;-60
2023/04/04 03:38:38;;;;;;;2.90;2.37;;;;;;;;;;6286409;28;20211;-59
2023/04/04 03:41:39;;;;;;;3.53;1.80;;;;;;;;;;6250597;28;20182;-61
2023/04/04 03:44:41;;;;;;;3.70;2.33;;;;;;;;;;6257753;28;20196;-60
2023/04/04 03:47:42;;;;;;;4.80;2.10;;;;;;;;;;6290219;28;20190;-60
2023/04/04 03:50:43;;;;;;;3.27;2.40;;;;;;;;;;6290840;28;20216;-61
2023/04/04 03:53:44;;;;;;;4.40;2.43;;;;;;;;;;6256558;28;20220;-61
2023/04/04 03:56:45;;;;;;;2.60;2.40;;;;;;;;;;6257293;28;20284;-61
2023/04/04 03:59:46;;;;;;;2.53;2.33;;;;;;;;;;6255449;28;20213;-60
2023/04/04 04:02:47;;;;;;;3.23;2.13;;;;;;;;;;6255511;28;20185;-60
2023/04/04 04:05:48;;;;;;;4.67;2.80;;;;;;;;;;6288541;28;20187;-61
2023/04/04 04:08:49;;;;;;;2.93;2.30;;;;;;;;;;6264687;28;20218;-61
2023/04/04 04:11:51;;;;;;;3.13;2.37;;;;;;;;;;6282916;28;20200;-60
2023/04/04 04:14:52;;;;;;;3.13;2.30;;;;;;;;;;6248503;28;20198;-60
2023/04/04 04:17:53;;;;;;;2.47;2.23;;;;;;;;;;6255198;28;20209;-60
2023/04/04 04:21:02;;;;;;;2.73;2.10;;;;;;;;;;6254901;28;20203;-57
2023/04/04 04:24:04;;;;;;;4.07;3.00;;;;;;;;;;6271384;28;20276;-59
2023/04/04 04:27:05;;;;;;;3.33;2.80;;;;;;;;;;6256820;28;20193;-58
2023/04/04 04:30:07;;;;;;;5.07;2.40;;;;;;;;;;6255325;28;20197;-60
2023/04/04 04:33:08;;;;;;;2.53;2.33;;;;;;;;;;6271345;28;20329;-60
2023/04/04 04:36:10;;;;;;;4.97;2.40;;;;;;;;;;6249426;28;20202;-60
2023/04/04 04:39:11;;;;;;;3.97;2.50;;;;;;;;;;6288170;28;20237;-61
2023/04/04 04:42:12;;;;;;;4.10;2.20;;;;;;;;;;6261234;28;20217;-60
2023/04/04 04:45:13;;;;;;;3.53;2.40;;;;;;;;;;6254107;28;20194;-58
2023/04/04 04:48:15;;;;;;;2.93;2.20;;;;;;;;;;6256118;28;20208;-59
2023/04/04 04:51:17;;;;;;;5.00;2.63;;;;;;;;;;6255803;28;20324;-59
2023/04/04 04:54:18;;;;;;;2.43;2.17;;;;;;;;;;6253756;28;20205;-59
2023/04/04 04:57:19;;;;;;;4.03;2.93;;;;;;;;;;6250875;28;20197;-59
2023/04/04 05:00:21;;;;;;;2.83;2.10;;;;;;;;;;6260005;28;20209;-59
2023/04/04 05:03:22;;;;;;;3.50;2.33;;;;;;;;;;6253036;28;20221;-58
2023/04/04 05:06:23;;;;;;;3.73;2.50;;;;;;;;;;6268419;28;20194;-59
2023/04/04 05:09:24;;;;;;;3.20;2.90;;;;;;;;;;6268282;28;20422;-59
2023/04/04 05:12:26;;;;;;;3.47;2.40;;;;;;;;;;6255353;28;20190;-60
2023/04/04 05:15:29;;;;;;;3.33;2.57;;;;;;;;;;6255377;28;20204;-60
2023/04/04 05:18:30;;;;;;;3.70;2.50;;;;;;;;;;6252832;28;20219;-60
2023/04/04 05:21:31;;;;;;;3.93;2.50;;;;;;;;;;6272426;28;20193;-59
2023/04/04 05:24:33;;;;;;;3.60;2.50;;;;;;;;;;6247619;28;20200;-59
2023/04/04 05:27:34;;;;;;;3.43;2.27;;;;;;;;;;6248026;28;20274;-59
2023/04/04 05:30:35;;;;;;;3.90;2.07;;;;;;;;;;6267852;28;20193;-60
2023/04/04 05:33:36;;;;;;;2.40;2.10;;;;;;;;;;6248230;28;20234;-61
2023/04/04 05:36:37;;;;;;;3.53;2.30;;;;;;;;;;6256669;28;20202;-62
2023/04/04 05:39:38;;;;;;;3.00;2.07;;;;;;;;;;6264154;28;20221;-59
2023/04/04 05:42:39;;;;;;;3.60;2.50;;;;;;;;;;6251579;28;20193;-59
2023/04/04 05:45:40;;;;;;;2.77;2.20;;;;;;;;;;6250827;28;20194;-59
2023/04/04 05:48:41;;;;;;;3.43;2.50;;;;;;;;;;6285729;28;20225;-59
2023/04/04 05:51:42;;;;;;;3.37;2.33;;;;;;;;;;6275954;28;20193;-59
2023/04/04 05:54:43;;;;;;;2.73;2.03;;;;;;;;;;6259446;28;20197;-60
2023/04/04 05:57:53;;;;;;;3.60;2.47;;;;;;;;;;6262894;28;20205;-59
2023/04/04 06:00:54;;;;;;;4.67;2.40;;;;;;;;;;6292252;28;20277;-59
2023/04/04 06:03:56;;;;;;;4.13;2.23;;;;;;;;;;6273098;28;20204;-59
2023/04/04 06:06:57;;;;;;;6.50;2.37;;;;;;;;;;6256550;28;20195;-59
2023/04/04 06:09:58;;;;;;;4.13;2.50;;;;;;;;;;6258722;28;20247;-59
2023/04/04 06:12:59;;;;;;;2.97;1.90;;;;;;;;;;6270993;28;20235;-59
2023/04/04 06:16:00;;;;;;;3.17;2.20;;;;;;;;;;6260005;28;20340;-59
2023/04/04 06:19:01;;;;;;;6.43;2.07;;;;;;;;;;6256957;28;20256;-59
2023/04/04 06:22:02;;;;;;;3.17;2.10;;;;;;;;;;6247387;28;20202;-59
2023/04/04 06:25:03;;;;;;;6.17;2.20;;;;;;;;;;6257456;28;20189;-59
2023/04/04 06:28:05;;;;;;;4.27;2.50;;;;;;;;;;6290699;28;20263;-59
2023/04/04 06:31:07;;;;;;;2.27;1.77;;;;;;;;;;6258605;28;20251;-59
2023/04/04 06:34:08;;;;;;;3.63;2.23;;;;;;;;;;6248765;28;20248;-59
2023/04/04 06:37:09;;;;;;;2.90;1.77;;;;;;;;;;6257056;28;20203;-59
2023/04/04 06:40:11;;;;;;;2.33;1.80;;;;;;;;;;6289565;28;20271;-59
2023/04/04 06:43:12;;;;;;;2.53;1.73;;;;;;;;;;6258138;28;20276;-59
2023/04/04 06:46:13;;;;;;;2.67;1.90;;;;;;;;;;6291724;28;20196;-59
2023/04/04 06:49:14;;;;;;;3.40;1.87;;;;;;;;;;6258401;28;20202;-59
2023/04/04 06:52:15;;;;;;;4.03;2.53;;;;;;;;;;6252475;28;20209;-64
2023/04/04 06:55:17;;;;;;;2.53;2.30;;;;;;;;;;6266048;28;20209;-63
2023/04/04 06:58:18;;;;;;;5.10;2.30;;;;;;;;;;6258216;28;20221;-63
2023/04/04 07:01:19;;;;;;;3.27;2.07;;;;;;;;;;6283469;28;20185;-61
2023/04/04 07:04:20;;;;;;;3.60;1.90;;;;;;;;;;6258251;28;20216;-59
2023/04/04 07:07:21;;;;;;;6.77;2.30;;;;;;;;;;6253148;28;20205;-59
2023/04/04 07:10:23;;;;;;;3.43;1.93;;;;;;;;;;6291447;28;20196;-59
2023/04/04 07:13:24;;;;;;;2.13;1.90;;;;;;;;;;6274471;28;20197;-59
2023/04/04 07:16:25;;;;;;;4.03;2.00;;;;;;;;;;6254874;28;20205;-59
2023/04/04 07:19:27;;;;;;;6.20;1.80;;;;;;;;;;6255711;28;20279;-60
2023/04/04 07:22:29;;;;;;;3.80;1.97;;;;;;;;;;6253949;28;20702;-59
2023/04/04 07:25:30;;;;;;;2.90;1.97;;;;;;;;;;6254604;28;20194;-60
2023/04/04 07:28:31;;;;;;;2.87;1.90;;;;;;;;;;6250420;28;20211;-60
2023/04/04 07:31:32;;;;;;;2.37;2.13;;;;;;;;;;6253812;28;20197;-59
2023/04/04 07:34:33;;;;;;;2.70;1.90;;;;;;;;;;6254513;28;20241;-59
2023/04/04 07:37:37;;;;;;;2.83;2.13;;;;;;;;;;6257726;28;20192;-60
2023/04/04 07:40:38;;;;;;;4.47;1.87;;;;;;;;;;6287854;28;20649;-60
2023/04/04 07:43:39;;;;;;;2.53;1.80;;;;;;;;;;6242978;28;20250;-60
2023/04/04 07:46:40;;;;;;;1.70;1.60;;;;;;;;;;6246052;28;20190;-60
2023/04/04 07:49:41;;;;;;;4.60;1.83;;;;;;;;;;6253821;28;20190;-60
2023/04/04 07:52:42;;;;;;;4.80;2.13;;;;;;;;;;6239444;28;20193;-60
2023/04/04 07:55:43;;;;;;;4.13;2.10;;;;;;;;;;6269358;28;20276;-60
2023/04/04 07:58:44;;;;;;;3.10;2.30;;;;;;;;;;6288514;28;20263;-60
2023/04/04 08:01:45;;;;;;;2.87;2.00;;;;;;;;;;6255460;28;20198;-59
2023/04/04 08:04:46;;;;;;;2.33;2.07;;;;;;;;;;6279372;28;20182;-60
2023/04/04 08:07:47;;;;;;;3.27;2.10;;;;;;;;;;6243389;28;20219;-60
2023/04/04 08:10:49;;;;;;;9.67;2.60;;;;;;;;;;6248980;28;20198;-60
2023/04/04 08:13:50;;;;;;;2.57;1.93;;;;;;;;;;6262477;28;20261;-58
2023/04/04 08:16:51;;;;;;;2.70;1.97;;;;;;;;;;6286106;28;20198;-58
2023/04/04 08:19:52;;;;;;;2.23;1.90;;;;;;;;;;6242738;28;20300;-58
2023/04/04 08:22:53;;;;;;;4.47;2.03;;;;;;;;;;6255182;28;20276;-58
2023/04/04 08:25:55;;;;;;;2.20;2.00;;;;;;;;;;6286829;28;20196;-59
2023/04/04 08:28:56;;;;;;;5.67;2.23;;;;;;;;;;6253956;28;20289;-59
2023/04/04 08:31:57;;;;;;;3.27;2.00;;;;;;;;;;6251828;28;20233;-59
2023/04/04 08:34:58;;;;;;;2.73;2.10;;;;;;;;;;6241901;28;20196;-59
2023/04/04 08:38:01;;;;;;;2.23;1.80;;;;;;;;;;6252596;28;20200;-59
2023/04/04 08:41:02;;;;;;;2.40;1.90;;;;;;;;;;6241604;28;20278;-59
2023/04/04 08:44:04;;;;;;;2.43;2.00;;;;;;;;;;6253617;28;20254;-59
2023/04/04 08:47:05;;;;;;;2.27;1.80;;;;;;;;;;6270356;28;20200;-59
2023/04/04 08:50:07;;;;;;;3.57;2.07;;;;;;;;;;6253780;28;20204;-59
2023/04/04 08:53:10;;;;;;;4.60;1.83;;;;;;;;;;6269234;28;20197;-59
2023/04/04 08:56:11;;;;;;;3.90;1.70;;;;;;;;;;6270094;28;20193;-59
2023/04/04 08:59:14;;;;;;;2.20;1.70;;;;;;;;;;6285964;28;20217;-59
2023/04/04 09:02:30;;;;;;;2.47;1.67;;;;;;;;;;6270148;28;20355;-60
2023/04/04 09:05:32;;;;;;;3.63;1.97;;;;;;;;;;6290123;28;20189;-59
2023/04/04 09:08:34;;;;;;;3.10;2.10;;;;;;;;;;6290487;28;20198;-60
2023/04/04 09:11:35;;;;;;;1.80;1.70;;;;;;;;;;6273760;28;20193;-59
2023/04/04 09:14:37;;;;;;;2.87;1.80;;;;;;;;;;6282499;28;20198;-60
2023/04/04 09:17:38;;;;;;;1.97;1.50;;;;;;;;;;6258710;28;20197;-59
2023/04/04 09:20:41;;;;;;;3.13;1.60;;;;;;;;;;6291707;28;20221;-59
2023/04/04 09:23:43;;;;;;;2.60;1.80;;;;;;;;;;6290663;28;20244;-59
2023/04/04 09:26:51;;;;;;;2.63;1.90;;;;;;;;;;6290852;28;20276;-59
2023/04/04 09:29:52;;;;;;;2.70;1.93;;;;;;;;;;6290945;28;20193;-60
2023/04/04 09:32:55;;;;;;;3.03;2.00;;;;;;;;;;6246805;28;20245;-59
2023/04/04 09:36:11;;;;;;;1.60;1.50;;;;;;;;;;6258265;28;20243;-59
2023/04/04 09:39:16;;;;;;;4.13;1.77;;;;;;;;;;6274055;28;20214;-59
2023/04/04 09:42:17;;;;;;;3.43;1.80;;;;;;;;;;6265239;28;20343;-59
2023/04/04 09:45:20;;;;;;;3.30;2.00;;;;;;;;;;6255577;28;20210;-60
2023/04/04 09:48:29;;;;;;;2.27;1.93;;;;;;;;;;6264880;28;20277;-59
2023/04/04 09:51:34;;;;;;;2.17;1.80;;;;;;;;;;6254508;28;20189;-59
2023/04/04 09:54:35;;;;;;;3.47;2.17;;;;;;;;;;6273639;28;20206;-59
2023/04/04 09:57:36;;;;;;;2.37;1.80;;;;;;;;;;6250352;28;20212;-59
2023/04/04 10:00:41;;;;;;;2.13;1.83;;;;;;;;;;6255905;28;20235;-59
2023/04/04 10:03:42;;;;;;;3.67;2.00;;;;;;;;;;6270779;28;20282;-59
2023/04/04 10:06:44;;;;;;;3.07;2.30;;;;;;;;;;6256163;28;20541;-59
2023/04/04 10:09:51;;;;;;;3.93;2.10;;;;;;;;;;6287029;28;20209;-59
2023/04/04 10:12:53;;;;;;;1.90;1.63;;;;;;;;;;6252808;28;20248;-60
2023/04/04 10:15:55;;;;;;;4.03;1.97;;;;;;;;;;6256144;28;20236;-60
2023/04/04 10:18:56;;;;;;;2.30;1.77;;;;;;;;;;6289541;28;20281;-60
2023/04/04 10:21:57;;;;;;;2.97;1.60;;;;;;;;;;6275378;28;20290;-60
2023/04/04 10:24:58;;;;;;;3.60;1.80;;;;;;;;;;6279246;28;20197;-60
2023/04/04 10:27:59;;;;;;;2.23;1.77;;;;;;;;;;6251313;28;20213;-60
2023/04/04 10:31:04;;;;;;;2.20;1.60;;;;;;;;;;6283428;28;20197;-60
2023/04/04 10:34:05;;;;;;;2.90;2.00;;;;;;;;;;6271619;28;20233;-60
2023/04/04 10:37:07;;;;;;;2.80;1.83;;;;;;;;;;6275690;28;20223;-59
2023/04/04 10:40:09;;;;;;;2.20;1.50;;;;;;;;;;6294662;28;20273;-60
2023/04/04 10:43:11;;;;;;;2.30;1.87;;;;;;;;;;6290461;28;20213;-60
2023/04/04 10:46:14;;;;;;;4.37;2.03;;;;;;;;;;6246820;28;21304;-59
2023/04/04 10:49:16;;;;;;;1.93;1.67;;;;;;;;;;6274374;28;20289;-60
2023/04/04 10:52:19;;;;;;;2.13;1.77;;;;;;;;;;6270404;28;20213;-60
2023/04/04 10:55:20;;;;;;;2.80;1.83;;;;;;;;;;6272608;28;20198;-60
2023/04/04 10:58:22;;;;;;;2.80;1.90;;;;;;;;;;6247560;28;20212;-59
2023/04/04 11:01:43;;;;;;;2.80;1.90;;;;;;;;;;6266447;28;20192;-60
2023/04/04 11:04:46;;;;;;;3.07;2.10;;;;;;;;;;6269455;28;20178;-59
2023/04/04 11:07:48;;;;;;;2.03;1.67;;;;;;;;;;6263168;28;20198;-59
2023/04/04 11:10:50;;;;;;;2.77;1.67;;;;;;;;;;6255381;28;20236;-59
2023/04/04 11:14:00;;;;;;;2.57;1.57;;;;;;;;;;6258079;28;20194;-59
2023/04/04 11:17:04;;;;;;;2.57;1.67;;;;;;;;;;6288232;28;20198;-59
2023/04/04 11:20:07;;;;;;;3.27;2.10;;;;;;;;;;6288887;28;20222;-59
2023/04/04 11:23:24;;;;;;;2.10;1.60;;;16.90;24.60;;;;;;6273235;28;20190;-59
2023/04/04 11:26:25;;;;;;;4.20;1.50;;;6.50;28.90;;;;;;6289098;28;20229;-59
2023/04/04 11:29:50;;;;;;;1.80;1.70;;;6.50;29.20;;;;;;6285527;28;20197;-59
2023/04/04 11:32:51;;;;;;;2.17;1.97;;;;;;;;;;6253071;28;20276;-59
2023/04/04 11:35:53;;;;;;;2.93;1.40;;;;;;;;;;6287758;28;20190;-59
2023/04/04 11:38:58;;;;;;;2.47;1.67;;;;;;;;;;6265170;28;20222;-60
2023/04/04 11:42:13;;;;;;;2.40;1.50;;;;;;;;;;6266083;28;20194;-59
2023/04/04 11:45:21;;;;;;;4.23;1.50;;;;;;;;;;6256014;28;20191;-58
2023/04/04 11:48:22;;;;;;;2.47;1.57;;;;;;;;;;6266263;28;20194;-59
2023/04/04 11:51:25;;;;;;;3.70;2.00;;;;;;;;;;6256345;28;20201;-57
2023/04/04 11:54:26;;;;;;;1.40;1.30;;;;;;;;;;6262082;28;20225;-57
2023/04/04 11:57:27;;;;;;;2.73;1.80;;;;;;;;;;6256752;28;20189;-57
2023/04/04 12:00:34;;;;;;;1.83;1.57;;;;;;;;;;6259999;28;20213;-58
2023/04/04 12:03:35;;;;;;;6.97;1.80;;;;;;;;;;6260232;28;20186;-59
2023/04/04 12:06:37;;;;;;;2.83;1.60;;;;;;;;;;6254182;28;20200;-59
2023/04/04 12:09:39;;;;;;;2.37;1.60;;;;;;;;;;6264779;28;20197;-59
2023/04/04 12:12:41;;;;;;;3.13;1.50;;;;;;;;;;6282357;28;20198;-59
2023/04/04 12:15:42;;;;;;;1.63;1.30;;;;;;;;;;6257376;28;20198;-59
2023/04/04 12:18:44;;;;;;;5.17;3.17;;;6.60;29.50;;;;;;6253634;28;20220;-59
2023/04/04 12:21:45;;;;;;;2.27;1.60;;;10.10;24.70;;;;;;6237689;28;20190;-59
2023/04/04 12:24:46;;;;;;;2.33;1.60;;;10.60;24.00;;;;;;6255599;28;20221;-59
2023/04/04 12:27:48;;;;;;;1.80;1.40;;;;;;;;;;6254379;28;20199;-59
2023/04/04 12:30:49;;;;;;;1.90;1.63;;;12.00;22.20;;;;;;6256602;28;20277;-59
2023/04/04 12:33:50;;;;;;;2.70;1.63;;;;;;;;;;6235664;28;20232;-60
2023/04/04 12:36:52;;;;;;;2.00;1.63;;;;;;;;;;6283152;28;20281;-60
2023/04/04 12:39:53;;;;;;;1.80;1.30;;;;;;;;;;6253133;28;20209;-59
2023/04/04 12:42:54;;;;;;;1.67;1.50;;;;;;;;;;6255532;28;20185;-60
2023/04/04 12:45:56;;;;;;;3.90;1.50;;;;;;;;;;6295990;28;20198;-58
2023/04/04 12:48:58;;;;;;;1.87;1.60;;;13.50;22.20;;;;;;6255933;28;20205;-59
2023/04/04 12:52:03;;;;;;;4.73;1.90;;;;;;;;;;6272988;28;20201;-59
2023/04/04 12:55:08;;;;;;;2.40;1.80;;;;;;;;;;6256118;28;20201;-59
2023/04/04 12:58:09;;;;;;;1.37;1.23;;;24.20;16.20;;;;;;6266803;28;20194;-60
2023/04/04 13:01:10;;;;;;;2.07;1.60;;;22.90;15.70;;;;;;6247997;28;20216;-59
2023/04/04 13:04:13;;;;;;;1.70;1.60;;;23.10;16.90;;;;;;6287288;28;20193;-59
2023/04/04 13:07:34;;;;;;;1.60;1.30;;;;;;;;;;6239638;28;20198;-59
2023/04/04 13:10:55;;;;;;;1.47;1.30;;;24.20;15.60;;;;;;6283622;28;20194;-60
2023/04/04 13:14:03;;;;;;;2.57;1.30;;;;;;;;;;6280242;28;20186;-59
2023/04/04 13:17:06;;;;;;;1.90;1.50;;;;;;;;;;6268590;28;20244;-59
2023/04/04 13:20:08;;;;;;;4.33;1.30;;;22.80;15.00;;;;;;6286742;28;20228;-59
2023/04/04 13:23:08;;;;;;;2.50;1.60;;;19.80;16.50;;;;;;6245729;28;20262;-59
2023/04/04 13:26:10;;;;;;;2.57;1.70;;;19.70;17.60;;;;;;6272282;28;20191;-59
2023/04/04 13:29:11;;;;;;;1.57;1.47;;;19.60;17.20;;;;;;6285438;28;20213;-58
2023/04/04 13:32:11;;;;;;;2.67;1.60;;;19.40;17.10;;;;;;6236725;28;20233;-59
2023/04/04 13:35:12;;;;;;;1.40;1.30;;;19.30;17.70;;;;;;6239307;28;20250;-59
2023/04/04 13:38:13;;;;;;;1.80;1.40;;;20.10;17.30;;;;;;6256843;28;20251;-59
2023/04/04 13:41:14;;;;;;;2.67;1.63;;;20.70;16.60;;;;;;6277593;28;20189;-59
2023/04/04 13:44:15;;;;;;;1.70;1.53;;;20.60;16.60;;;;;;6244067;28;20278;-59
2023/04/04 13:47:16;;;;;;;2.83;1.60;;;;;;;;;;6271095;28;20192;-60
2023/04/04 13:50:17;;;;;;;1.50;1.40;;;;;;;;;;6256104;28;20185;-59
2023/04/04 13:53:18;;;;;;;2.00;1.30;;;;;;;;;;6276274;28;20264;-59
2023/04/04 13:56:20;;;;;;;1.93;1.57;;;;;;;;;;6256876;28;20193;-59
2023/04/04 13:59:21;;;;;;;3.13;1.50;;;18.30;17.60;;;;;;6293021;28;20212;-59
2023/04/04 14:02:22;;;;;;;2.13;1.80;;;;;;;;;;6241417;28;20194;-59
2023/04/04 14:05:23;;;;;;;1.90;1.50;;;;;;;;;;6275460;28;20186;-60
2023/04/04 14:08:24;;;;;;;2.17;1.97;;;;;;;;;;6274362;28;20207;-60
2023/04/04 14:11:29;;;;;;;1.67;1.50;;;;;;;;;;6271854;28;20189;-60
2023/04/04 14:14:30;;;;;;;1.67;1.57;;;;;;;;;;6258801;28;20205;-59
2023/04/04 14:17:31;;;;;;;1.90;1.60;;;18.90;17.40;;;;;;6256248;28;20201;-59
2023/04/04 14:20:32;;;;;;;1.40;1.30;;;19.20;17.50;;;;;;6274030;28;20224;-58
2023/04/04 14:23:33;;;;;;;2.23;1.50;;;19.40;17.20;;;;;;6256345;28;20186;-58
2023/04/04 14:26:36;;;;;;;1.60;1.40;;;;;;;;;;6273850;28;20190;-59
2023/04/04 14:29:37;;;;;;;6.17;1.73;;;;;;;;;;6258047;28;20221;-59
2023/04/04 14:32:40;;;;;;;1.97;1.70;;;;;;;;;;6258498;28;20263;-59
2023/04/04 14:35:41;;;;;;;2.03;1.77;;;;;;;;;;6258184;28;20204;-59
2023/04/04 14:38:42;;;;;;;1.97;1.53;;;;;;;;;;6275068;28;20210;-59
2023/04/04 14:41:43;;;;;;;2.27;1.63;;;;;;;;;;6258807;28;20193;-59
2023/04/04 14:44:44;;;;;;;1.97;1.53;;;19.20;17.20;;;;;;6292014;28;20182;-59
2023/04/04 14:47:45;;;;;;;3.33;1.87;;;18.20;17.90;;;;;;6236735;28;20198;-59
2023/04/04 14:50:46;;;;;;;2.57;1.77;;;;;;;;;;6272402;28;20182;-60
2023/04/04 14:53:47;;;;;;;2.00;1.73;;;;;;;;;;6291253;28;20189;-59
2023/04/04 14:56:48;;;;;;;2.37;2.17;;;;;;;;;;6249630;28;20221;-59
2023/04/04 14:59:50;;;;;;;2.70;1.60;;;;;;;;;;6257873;28;20212;-59
2023/04/04 15:02:51;;;;;;;2.17;1.63;;;;;;;;;;6273660;28;20551;-59
2023/04/04 15:05:52;;;;;;;2.00;1.40;;;;;;;;;;6256610;28;20193;-60
2023/04/04 15:08:53;;;;;;;2.17;1.53;;;;;;;;;;6291146;28;20211;-59
2023/04/04 15:11:55;;;;;;;3.23;2.07;;;;;;;;;;6274197;28;20194;-59
2023/04/04 15:14:56;;;;;;;2.30;1.60;;;;;;;;;;6258711;28;20189;-59
2023/04/04 15:18:12;;;;;;;2.47;1.40;;;;;;;;;;6242796;28;20288;-59
2023/04/04 15:21:13;;;;;;;2.27;1.63;;;;;;;;;;6255246;28;20198;-60
2023/04/04 15:24:14;;;;;;;2.53;2.20;;;;;;;;;;6257707;28;20182;-59
2023/04/04 15:27:15;;;;;;;1.60;1.50;;;;;;;;;;6255266;28;20196;-58
2023/04/04 15:30:16;;;;;;;2.53;1.80;;;;;;;;;;6267957;28;20193;-59
2023/04/04 15:33:17;;;;;;;3.33;1.70;;;18.30;18.20;;;;;;6279044;28;20237;-59
2023/04/04 15:36:18;;;;;;;1.80;1.60;;;22.70;15.90;;;;;;6251276;28;20216;-58
2023/04/04 15:39:18;;;;;;;2.60;1.63;;;22.70;15.70;;;;;;6266329;28;20214;-59
2023/04/04 15:42:19;;;;;;;1.93;1.63;;;;;;;;;;6282707;28;20192;-59
2023/04/04 15:45:21;;;;;;;2.00;1.80;;;;;;;;;;6245094;28;20198;-58
2023/04/04 15:48:22;;;;;;;1.50;1.40;;;;;;;;;;6266115;28;20278;-58
2023/04/04 15:51:24;;;;;;;1.73;1.63;;;;;;;;;;6255895;28;20189;-58
2023/04/04 15:54:27;;;;;;;2.30;1.57;;;22.20;16.30;;;;;;6269449;28;20194;-58
2023/04/04 15:57:28;;;;;;;2.27;2.03;;;16.50;18.60;;;;;;6248428;28;20285;-58
2023/04/04 16:00:29;;;;;;;1.97;1.67;;;15.50;19.80;;;;;;6251004;28;20213;-58
2023/04/04 16:03:30;;;;;;;2.57;1.90;;;;;;;;;;6261075;28;20204;-59
2023/04/04 16:06:31;;;;;;;2.57;2.07;;;;;;;;;;6286614;28;20204;-59
2023/04/04 16:09:32;;;;;;;4.10;2.00;;;;;;;;;;6267096;28;20197;-58
2023/04/04 16:12:33;;;;;;;2.90;1.97;;;;;;;;;;6256447;28;20247;-60
2023/04/04 16:15:34;;;;;;;2.03;1.83;;;;;;;;;;6255289;28;20186;-59
2023/04/04 16:18:36;;;;;;;1.97;1.47;;;;;;;;;;6288859;28;20217;-59
2023/04/04 16:21:37;;;;;;;2.47;1.70;;;;;;;;;;6286246;28;20198;-58
2023/04/04 16:24:38;;;;;;;3.23;2.10;;;;;;;;;;6256792;28;20200;-58
2023/04/04 16:27:39;;;;;;;2.43;1.60;;;;;;;;;;6268774;28;20182;-58
2023/04/04 16:30:40;;;;;;;2.53;2.00;;;;;;;;;;6256525;28;20198;-58
2023/04/04 16:33:41;;;;;;;2.03;1.83;;;;;;;;;;6250633;28;20298;-58
2023/04/04 16:36:42;;;;;;;3.33;1.77;;;;;;;;;;6267052;28;20347;-59
2023/04/04 16:39:45;;;;;;;3.60;2.10;;;;;;;;;;6274093;28;20209;-59
2023/04/04 16:42:47;;;;;;;3.07;1.67;;;;;;;;;;6302067;28;20255;-59
2023/04/04 16:45:48;;;;;;;2.20;1.97;;;;;;;;;;6255585;28;20197;-60
2023/04/04 16:48:49;;;;;;;2.43;2.00;;;;;;;;;;6245704;28;20228;-58
2023/04/04 16:51:50;;;;;;;2.80;2.00;;;;;;;;;;6282231;28;20189;-58
2023/04/04 16:54:53;;;;;;;2.33;1.93;;;;;;;;;;6256449;28;20331;-58
2023/04/04 16:57:54;;;;;;;2.93;2.10;;;;;;;;;;6271915;28;20198;-59
2023/04/04 17:00:55;;;;;;;2.70;1.90;;;;;;;;;;6256321;28;20351;-59
2023/04/04 17:03:56;;;;;;;1.57;1.47;;;;;;;;;;6247212;28;20192;-58
2023/04/04 17:06:57;;;;;;;2.43;2.00;;;;;;;;;;6289354;28;20200;-57
2023/04/04 17:09:58;;;;;;;2.00;1.70;;;;;;;;;;6254265;28;20201;-59
2023/04/04 17:12:59;;;;;;;2.23;2.03;;;;;;;;;;6254234;28;20197;-61
2023/04/04 17:16:01;;;;;;;4.57;2.30;;;;;;;;;;6287082;28;20182;-60
2023/04/04 17:19:02;;;;;;;2.27;2.07;;;;;;;;;;6253675;28;20252;-63
2023/04/04 17:22:03;;;;;;;2.37;2.13;;;;;;;;;;6276201;28;20197;-63
2023/04/04 17:25:04;;;;;;;2.27;1.97;;;;;;;;;;6291041;28;20331;-62
2023/04/04 17:28:06;;;;;;;2.33;2.00;;;;;;;;;;6248606;28;20198;-62
2023/04/04 17:31:07;;;;;;;4.33;2.43;;;;;;;;;;6293932;28;20193;-63
2023/04/04 17:34:10;;;;;;;3.20;2.33;;;;;;;;;;6257448;28;20252;-62
2023/04/04 17:37:12;;;;;;;2.20;2.00;;;;;;;;;;6274371;28;20324;-61
2023/04/04 17:40:13;;;;;;;3.80;2.40;;;;;;;;;;6259084;28;20316;-62
2023/04/04 17:43:14;;;;;;;4.83;3.57;;;;;;;;;;6280948;28;20185;-64
2023/04/04 17:46:15;;;;;;;8.37;4.83;;;;;;;;;;6293249;28;20196;-64
2023/04/04 17:49:18;;;;;;;3.13;2.10;;;;;;;;;;6252203;28;20196;-62
2023/04/04 17:52:19;;;;;;;2.60;2.10;;;;;;;;;;6292791;28;20193;-63
2023/04/04 17:55:21;;;;;;;4.80;2.60;;;;;;;;;;6276534;28;20189;-61